createdAt,value
2023-06-29T00:01:03.659Z,4.65
2023-06-29T00:03:51.021Z,4.18
2023-06-29T00:06:38.403Z,4.35
2023-06-29T00:09:25.663Z,4.00
2023-06-29T00:12:12.882Z,4.30
2023-06-29T00:15:00.134Z,3.83
2023-06-29T00:17:48.549Z,3.55
2023-06-29T00:20:36.983Z,3.40
2023-06-29T00:23:26.024Z,3.60
2023-06-29T00:26:14.472Z,3.40
2023-06-29T00:29:01.757Z,3.92
2023-06-29T00:31:49.448Z,3.67
2023-06-29T00:34:39.037Z,4.15
2023-06-29T00:37:26.358Z,4.40
2023-06-29T00:40:14.482Z,4.20
2023-06-29T00:43:02.902Z,4.03
2023-06-29T00:45:51.606Z,4.47
2023-06-29T00:48:39.766Z,3.85
2023-06-29T00:51:27.683Z,3.88
2023-06-29T00:54:15.098Z,4.20
2023-06-29T00:57:02.579Z,4.03
2023-06-29T00:59:49.962Z,4.25
2023-06-29T01:02:42.112Z,4.60
2023-06-29T01:05:34.367Z,4.10
2023-06-29T01:08:28.482Z,4.15
2023-06-29T01:11:16.561Z,4.30
2023-06-29T01:14:06.739Z,3.97
2023-06-29T01:16:56.823Z,4.30
2023-06-29T01:19:48.051Z,4.33
2023-06-29T01:25:28.779Z,4.10
2023-06-29T01:28:17.812Z,4.50
2023-06-29T01:31:06.581Z,4.18
2023-06-29T01:33:54.938Z,4.45
2023-06-29T01:36:47.449Z,4.00
2023-06-29T01:39:45.036Z,4.05
2023-06-29T01:42:35.120Z,3.92
2023-06-29T01:45:24.649Z,4.22
2023-06-29T01:48:16.081Z,3.92
2023-06-29T01:51:03.758Z,4.00
2023-06-29T01:53:51.628Z,3.63
2023-06-29T01:56:38.950Z,3.60
2023-06-29T01:59:26.716Z,3.72
2023-06-29T02:02:14.012Z,3.50
2023-06-29T02:05:01.800Z,3.40
2023-06-29T02:07:49.160Z,3.30
2023-06-29T02:10:36.399Z,3.78
2023-06-29T02:13:23.744Z,3.30
2023-06-29T02:16:10.991Z,3.55
2023-06-29T02:18:58.348Z,3.70
2023-06-29T02:21:45.581Z,3.60
2023-06-29T02:24:32.784Z,3.60
2023-06-29T02:27:21.530Z,3.90
2023-06-29T02:30:09.668Z,4.10
2023-06-29T02:32:57.512Z,3.67
2023-06-29T02:35:45.808Z,3.90
2023-06-29T02:38:33.184Z,3.80
2023-06-29T02:41:20.376Z,3.78
2023-06-29T02:44:07.602Z,3.60
2023-06-29T02:46:55.996Z,4.00
2023-06-29T02:49:43.288Z,4.05
2023-06-29T02:52:33.580Z,4.43
2023-06-29T02:55:25.006Z,4.28
2023-06-29T02:58:13.427Z,4.85
2023-06-29T03:01:00.881Z,3.97
2023-06-29T03:03:49.714Z,4.50
2023-06-29T03:06:37.718Z,4.43
2023-06-29T03:09:27.858Z,4.20
2023-06-29T03:12:15.294Z,4.43
2023-06-29T03:15:02.694Z,4.85
2023-06-29T03:17:50.032Z,4.68
2023-06-29T03:20:37.596Z,4.80
2023-06-29T03:23:24.778Z,5.20
2023-06-29T03:26:11.949Z,5.30
2023-06-29T03:28:59.288Z,4.97
2023-06-29T03:31:46.641Z,5.15
2023-06-29T03:34:35.006Z,4.90
2023-06-29T03:37:22.431Z,4.80
2023-06-29T03:40:10.342Z,4.80
2023-06-29T03:42:57.822Z,5.00
2023-06-29T03:45:45.518Z,5.78
2023-06-29T03:48:33.036Z,5.88
2023-06-29T03:51:20.380Z,6.15
2023-06-29T03:54:07.674Z,5.95
2023-06-29T03:56:56.534Z,5.72
2023-06-29T03:59:43.861Z,5.60
2023-06-29T04:02:31.293Z,5.57
2023-06-29T04:05:18.704Z,4.78
2023-06-29T04:08:06.502Z,4.53
2023-06-29T04:10:53.711Z,4.82
2023-06-29T04:13:41.035Z,4.68
2023-06-29T04:16:28.913Z,4.70
2023-06-29T04:19:17.158Z,4.65
2023-06-29T04:22:05.237Z,4.57
2023-06-29T04:24:52.469Z,4.30
2023-06-29T04:27:39.733Z,4.05
2023-06-29T04:30:27.063Z,3.83
2023-06-29T04:33:16.337Z,3.40
2023-06-29T04:36:03.815Z,3.85
2023-06-29T04:38:51.953Z,3.75
2023-06-29T04:41:41.867Z,3.40
2023-06-29T04:44:35.868Z,3.65
2023-06-29T04:47:24.054Z,3.72
2023-06-29T04:50:11.703Z,3.50
2023-06-29T04:53:00.347Z,3.40
2023-06-29T04:55:47.664Z,3.30
2023-06-29T04:58:35.093Z,3.33
2023-06-29T05:01:22.481Z,3.40
2023-06-29T05:04:09.721Z,2.90
2023-06-29T05:06:57.176Z,3.10
2023-06-29T05:09:44.551Z,3.00
2023-06-29T05:12:32.152Z,3.05
2023-06-29T05:15:19.499Z,2.60
2023-06-29T05:18:06.788Z,2.63
2023-06-29T05:20:54.042Z,2.72
2023-06-29T05:23:42.041Z,2.55
2023-06-29T05:26:29.825Z,2.90
2023-06-29T05:29:17.119Z,2.63
2023-06-29T05:32:04.977Z,2.42
2023-06-29T05:34:52.253Z,2.50
2023-06-29T05:37:40.110Z,2.40
2023-06-29T05:40:27.516Z,2.08
2023-06-29T05:43:14.785Z,2.42
2023-06-29T05:46:02.197Z,2.20
2023-06-29T05:48:49.642Z,1.98
2023-06-29T05:51:38.522Z,2.17
2023-06-29T05:54:25.761Z,2.10
2023-06-29T05:57:16.955Z,2.03
2023-06-29T06:00:10.401Z,1.92
2023-06-29T06:02:57.605Z,1.92
2023-06-29T06:05:44.907Z,1.80
2023-06-29T06:08:32.359Z,1.80
2023-06-29T06:11:19.784Z,1.77
2023-06-29T06:14:07.189Z,1.83
2023-06-29T06:16:55.068Z,1.90
2023-06-29T06:19:42.988Z,1.67
2023-06-29T06:22:30.344Z,1.40
2023-06-29T06:25:18.992Z,1.77
2023-06-29T06:28:06.651Z,1.65
2023-06-29T06:30:55.145Z,1.70
2023-06-29T06:33:43.008Z,1.50
2023-06-29T06:36:31.711Z,1.65
2023-06-29T06:39:21.013Z,1.42
2023-06-29T06:42:08.854Z,1.80
2023-06-29T06:44:57.055Z,1.75
2023-06-29T06:47:44.666Z,1.83
2023-06-29T06:50:32.171Z,1.60
2023-06-29T06:53:19.517Z,2.05
2023-06-29T06:56:06.848Z,1.60
2023-06-29T06:58:54.109Z,1.67
2023-06-29T07:01:42.676Z,1.63
2023-06-29T07:04:30.316Z,1.95
2023-06-29T07:07:17.753Z,1.65
2023-06-29T07:10:05.934Z,1.90
2023-06-29T07:12:54.143Z,1.60
2023-06-29T07:15:41.370Z,1.80
2023-06-29T07:18:30.958Z,1.90
2023-06-29T07:21:21.248Z,1.80
2023-06-29T07:24:10.942Z,1.98
2023-06-29T07:26:58.186Z,1.83
2023-06-29T07:29:47.539Z,1.95
2023-06-29T07:32:35.692Z,1.80
2023-06-29T07:35:23.091Z,1.80
2023-06-29T07:38:10.375Z,1.85
2023-06-29T07:40:57.593Z,1.60
2023-06-29T07:43:52.217Z,1.60
2023-06-29T07:46:39.484Z,1.75
2023-06-29T07:49:26.958Z,1.45
2023-06-29T07:52:14.234Z,1.55
2023-06-29T07:55:02.310Z,1.70
2023-06-29T08:00:40.709Z,1.80
2023-06-29T08:03:28.802Z,1.80
2023-06-29T08:09:07.002Z,1.80
2023-06-29T08:11:54.278Z,1.50
2023-06-29T08:14:41.698Z,1.60
2023-06-29T08:17:30.633Z,1.70
2023-06-29T08:20:17.932Z,1.40
2023-06-29T08:23:05.810Z,1.42
2023-06-29T08:25:53.421Z,1.70
2023-06-29T08:28:40.671Z,1.60
2023-06-29T08:31:28.168Z,1.55
2023-06-29T08:34:15.603Z,1.42
2023-06-29T08:37:03.015Z,1.80
2023-06-29T08:39:50.525Z,1.65
2023-06-29T08:42:41.030Z,1.60
2023-06-29T08:45:28.343Z,1.58
2023-06-29T08:48:19.353Z,1.70
2023-06-29T08:51:11.470Z,1.60
2023-06-29T08:53:59.487Z,1.50
2023-06-29T08:56:48.132Z,1.65
2023-06-29T08:59:36.481Z,1.60
2023-06-29T09:02:24.271Z,1.60
2023-06-29T09:05:14.800Z,1.80
2023-06-29T09:08:02.453Z,1.60
2023-06-29T09:10:49.952Z,1.60
2023-06-29T09:13:37.959Z,1.80
2023-06-29T09:16:30.150Z,1.40
2023-06-29T09:19:18.679Z,1.58
2023-06-29T09:22:05.916Z,1.60
2023-06-29T09:25:09.836Z,1.63
2023-06-29T09:28:05.346Z,1.85
2023-06-29T09:30:52.807Z,1.70
2023-06-29T09:33:40.248Z,1.50
2023-06-29T09:36:28.084Z,1.83
2023-06-29T09:39:16.453Z,1.70
2023-06-29T09:42:04.059Z,1.77
2023-06-29T09:44:51.664Z,1.70
2023-06-29T09:50:44.215Z,1.88
2023-06-29T09:53:34.920Z,2.08
2023-06-29T09:56:22.878Z,1.80
2023-06-29T09:59:13.645Z,1.90
2023-06-29T10:02:01.424Z,1.90
2023-06-29T10:04:48.732Z,1.95
2023-06-29T10:07:38.074Z,1.80
2023-06-29T10:10:28.489Z,1.88
2023-06-29T10:13:17.855Z,1.60
2023-06-29T10:16:08.711Z,1.90
2023-06-29T10:19:02.393Z,2.15
2023-06-29T10:21:54.847Z,2.70
2023-06-29T10:24:45.013Z,4.50
2023-06-29T10:27:35.112Z,2.20
2023-06-29T10:30:22.484Z,2.10
2023-06-29T10:33:10.992Z,1.95
2023-06-29T10:36:00.299Z,1.98
2023-06-29T10:38:47.656Z,2.00
2023-06-29T10:41:34.871Z,2.17
2023-06-29T10:44:22.690Z,2.00
2023-06-29T10:47:27.569Z,2.15
2023-06-29T10:50:15.203Z,1.95
2023-06-29T10:53:08.397Z,1.98
2023-06-29T10:55:58.811Z,2.30
2023-06-29T10:58:46.151Z,2.10
2023-06-29T11:01:33.648Z,2.05
2023-06-29T11:04:23.293Z,2.10
2023-06-29T11:07:12.270Z,1.88
2023-06-29T11:10:03.770Z,1.90
2023-06-29T11:12:55.253Z,1.80
2023-06-29T11:15:42.478Z,2.20
2023-06-29T11:18:32.876Z,2.50
2023-06-29T11:21:21.307Z,2.45
2023-06-29T11:24:10.817Z,2.00
2023-06-29T11:26:58.253Z,2.50
2023-06-29T11:29:45.653Z,2.50
2023-06-29T11:32:34.441Z,2.60
2023-06-29T11:35:23.744Z,2.40
2023-06-29T11:38:11.260Z,2.42
2023-06-29T11:41:08.328Z,2.60
2023-06-29T11:43:56.330Z,2.30
2023-06-29T11:46:54.075Z,2.30
2023-06-29T11:49:42.212Z,2.50
2023-06-29T11:52:33.969Z,2.40
2023-06-29T11:55:23.437Z,2.30
2023-06-29T11:58:14.317Z,2.33
2023-06-29T12:01:01.910Z,2.38
2023-06-29T12:03:49.702Z,2.53
2023-06-29T12:06:37.499Z,2.70
2023-06-29T12:09:34.795Z,2.40
2023-06-29T12:12:24.169Z,2.50
2023-06-29T12:15:21.524Z,2.63
2023-06-29T12:18:17.093Z,2.53
2023-06-29T12:21:05.424Z,2.60
2023-06-29T12:23:52.835Z,2.55
2023-06-29T12:26:40.260Z,2.55
2023-06-29T12:29:27.477Z,2.55
2023-06-29T12:32:14.634Z,2.58
2023-06-29T12:35:02.406Z,2.22
2023-06-29T12:37:49.812Z,2.67
2023-06-29T12:40:39.236Z,2.58
2023-06-29T12:43:26.751Z,2.60
2023-06-29T12:46:14.460Z,2.50
2023-06-29T12:49:01.659Z,2.97
2023-06-29T12:51:48.954Z,2.70
2023-06-29T12:54:36.619Z,3.20
2023-06-29T12:57:27.337Z,3.10
2023-06-29T13:03:08.736Z,2.75
2023-06-29T13:05:56.639Z,2.72
2023-06-29T13:08:44.448Z,2.58
2023-06-29T13:11:31.621Z,2.95
2023-06-29T13:14:19.453Z,3.00
2023-06-29T13:17:06.885Z,2.90
2023-06-29T13:19:54.305Z,2.70
2023-06-29T13:22:42.580Z,2.50
2023-06-29T13:25:30.148Z,2.60
2023-06-29T13:28:17.814Z,2.50
2023-06-29T13:31:05.097Z,2.60
2023-06-29T13:33:53.014Z,3.20
2023-06-29T13:36:40.167Z,2.80
2023-06-29T13:39:27.784Z,2.83
2023-06-29T13:42:16.826Z,3.00
2023-06-29T13:45:04.362Z,2.60
2023-06-29T13:47:59.004Z,2.88
2023-06-29T13:50:46.757Z,2.60
2023-06-29T13:53:34.047Z,2.40
2023-06-29T13:56:21.278Z,2.58
2023-06-29T13:59:09.966Z,2.85
2023-06-29T14:01:58.496Z,2.63
2023-06-29T14:04:46.405Z,2.55
2023-06-29T14:07:34.736Z,2.85
2023-06-29T14:10:22.167Z,3.33
2023-06-29T14:13:09.458Z,3.08
2023-06-29T14:15:56.813Z,3.30
2023-06-29T14:18:44.151Z,3.00
2023-06-29T14:21:31.748Z,3.08
2023-06-29T14:24:19.113Z,3.00
2023-06-29T14:27:06.824Z,3.25
2023-06-29T14:29:54.156Z,3.13
2023-06-29T14:32:41.431Z,3.72
2023-06-29T14:35:31.801Z,3.70
2023-06-29T14:38:19.714Z,2.97
2023-06-29T14:41:07.281Z,2.90
2023-06-29T14:43:54.478Z,3.20
2023-06-29T14:46:42.013Z,3.10
2023-06-29T14:49:29.437Z,3.28
2023-06-29T14:52:16.758Z,2.88
2023-06-29T14:55:05.636Z,3.05
2023-06-29T14:57:53.541Z,3.22
2023-06-29T15:00:41.268Z,3.30
2023-06-29T15:03:28.735Z,3.15
2023-06-29T15:06:15.977Z,3.20
2023-06-29T15:09:03.401Z,3.47
2023-06-29T15:11:51.008Z,3.25
2023-06-29T15:14:38.176Z,3.22
2023-06-29T15:17:26.414Z,2.88
2023-06-29T15:20:14.129Z,3.20
2023-06-29T15:23:02.326Z,3.00
2023-06-29T15:25:49.954Z,2.78
2023-06-29T15:28:37.421Z,2.95
2023-06-29T15:31:24.769Z,2.70
2023-06-29T15:34:12.113Z,3.00
2023-06-29T15:36:59.492Z,2.92
2023-06-29T15:39:47.567Z,2.75
2023-06-29T15:42:34.865Z,2.70
2023-06-29T15:45:22.537Z,3.00
2023-06-29T15:48:10.022Z,3.00
2023-06-29T15:50:57.367Z,2.83
2023-06-29T15:53:44.596Z,2.70
2023-06-29T15:56:31.744Z,2.85
2023-06-29T15:59:19.106Z,3.03
2023-06-29T16:02:07.712Z,2.75
2023-06-29T16:04:55.206Z,2.80
2023-06-29T16:07:42.756Z,2.90
2023-06-29T16:10:30.085Z,2.70
2023-06-29T16:13:17.473Z,2.70
2023-06-29T16:16:04.917Z,2.55
2023-06-29T16:18:52.242Z,2.85
2023-06-29T16:21:40.357Z,2.83
2023-06-29T16:24:27.595Z,2.95
2023-06-29T16:27:15.342Z,2.72
2023-06-29T16:30:02.761Z,2.80
2023-06-29T16:32:50.343Z,2.80
2023-06-29T16:35:38.064Z,2.90
2023-06-29T16:38:25.305Z,2.70
2023-06-29T16:41:12.813Z,3.30
2023-06-29T16:44:00.077Z,3.00
2023-06-29T16:46:53.504Z,2.60
2023-06-29T16:49:41.024Z,2.80
2023-06-29T16:52:28.455Z,2.80
2023-06-29T16:55:15.767Z,2.80
2023-06-29T16:58:03.940Z,2.83
2023-06-29T17:00:51.224Z,2.92
2023-06-29T17:03:38.681Z,2.90
2023-06-29T17:06:26.017Z,2.85
2023-06-29T17:09:13.527Z,2.72
2023-06-29T17:12:00.857Z,2.70
2023-06-29T17:14:48.853Z,2.95
2023-06-29T17:17:36.270Z,2.95
2023-06-29T17:20:24.024Z,2.80
2023-06-29T17:23:11.770Z,2.88
2023-06-29T17:25:59.322Z,3.22
2023-06-29T17:28:46.713Z,2.67
2023-06-29T17:31:34.458Z,2.78
2023-06-29T17:34:21.709Z,2.72
2023-06-29T17:37:09.115Z,2.90
2023-06-29T17:39:56.400Z,3.17
2023-06-29T17:42:43.837Z,2.63
2023-06-29T17:45:31.078Z,3.15
2023-06-29T17:48:18.365Z,2.63
2023-06-29T17:51:19.745Z,2.95
2023-06-29T17:54:07.095Z,2.80
2023-06-29T17:56:54.322Z,2.90
2023-06-29T17:59:41.527Z,2.53
2023-06-29T18:02:29.012Z,2.55
2023-06-29T18:05:16.267Z,2.90
2023-06-29T18:08:03.599Z,3.25
2023-06-29T18:10:50.974Z,2.80
2023-06-29T18:13:38.340Z,3.13
2023-06-29T18:16:25.823Z,2.50
2023-06-29T18:19:13.580Z,2.95
2023-06-29T18:22:01.214Z,2.80
2023-06-29T18:24:48.558Z,2.92
2023-06-29T18:27:35.892Z,3.00
2023-06-29T18:30:23.190Z,2.90
2023-06-29T18:33:10.520Z,3.00
2023-06-29T18:35:57.750Z,2.63
2023-06-29T18:38:45.026Z,3.00
2023-06-29T18:41:34.603Z,3.03
2023-06-29T18:44:22.181Z,3.00
2023-06-29T18:47:14.880Z,3.20
2023-06-29T18:50:04.801Z,2.67
2023-06-29T18:52:52.228Z,2.83
2023-06-29T18:55:39.491Z,2.70
2023-06-29T18:58:26.728Z,3.00
2023-06-29T19:01:14.687Z,3.13
2023-06-29T19:04:02.550Z,3.42
2023-06-29T19:06:49.840Z,3.20
2023-06-29T19:09:37.120Z,3.35
2023-06-29T19:12:24.301Z,3.30
2023-06-29T19:15:11.571Z,2.92
2023-06-29T19:17:59.220Z,3.20
2023-06-29T19:20:46.997Z,3.05
2023-06-29T19:23:34.422Z,3.10
2023-06-29T19:26:21.824Z,3.20
2023-06-29T19:29:09.129Z,3.22
2023-06-29T19:31:56.361Z,2.97
2023-06-29T19:34:44.608Z,3.17
2023-06-29T19:37:32.212Z,3.03
2023-06-29T19:40:22.111Z,3.03
2023-06-29T19:43:09.329Z,3.30
2023-06-29T19:45:56.946Z,3.50
2023-06-29T19:48:44.377Z,3.35
2023-06-29T19:51:35.098Z,3.45
2023-06-29T19:57:09.639Z,3.20
2023-06-29T19:59:56.894Z,3.42
2023-06-29T20:02:44.773Z,3.05
2023-06-29T20:05:32.131Z,3.10
2023-06-29T20:08:20.920Z,3.38
2023-06-29T20:11:08.731Z,3.38
2023-06-29T20:13:55.945Z,3.42
2023-06-29T20:16:43.432Z,3.55
2023-06-29T20:19:32.185Z,3.10
2023-06-29T20:22:19.458Z,3.28
2023-06-29T20:25:07.178Z,3.28
2023-06-29T20:27:54.476Z,3.40
2023-06-29T20:30:41.709Z,3.20
2023-06-29T20:33:28.951Z,3.63
2023-06-29T20:36:16.709Z,3.50
2023-06-29T20:39:04.355Z,3.45
2023-06-29T20:41:51.882Z,3.40
2023-06-29T20:44:39.153Z,3.45
2023-06-29T20:47:26.524Z,3.70
2023-06-29T20:50:14.268Z,3.60
2023-06-29T20:53:01.740Z,3.30
2023-06-29T20:55:49.420Z,3.50
2023-06-29T20:58:38.106Z,3.38
2023-06-29T21:01:25.943Z,3.38
2023-06-29T21:04:13.427Z,3.40
2023-06-29T21:07:00.913Z,3.53
2023-06-29T21:09:48.435Z,3.20
2023-06-29T21:12:36.492Z,3.38
2023-06-29T21:15:23.791Z,3.50
2023-06-29T21:18:12.751Z,3.42
2023-06-29T21:21:00.487Z,3.47
2023-06-29T21:23:48.093Z,3.40
2023-06-29T21:26:35.617Z,3.30
2023-06-29T21:32:16.251Z,3.45
2023-06-29T21:35:04.329Z,3.30
2023-06-29T21:37:52.135Z,3.60
2023-06-29T21:40:40.355Z,3.42
2023-06-29T21:43:27.807Z,3.20
2023-06-29T21:46:15.032Z,3.65
2023-06-29T21:49:02.215Z,3.53
2023-06-29T21:51:49.680Z,3.40
2023-06-29T21:54:37.046Z,3.28
2023-06-29T21:57:24.236Z,3.67
2023-06-29T22:00:13.758Z,3.22
2023-06-29T22:03:04.120Z,3.20
2023-06-29T22:05:51.474Z,3.33
2023-06-29T22:08:38.634Z,3.05
2023-06-29T22:11:29.075Z,3.38
2023-06-29T22:14:16.623Z,3.58
2023-06-29T22:17:04.651Z,3.50
2023-06-29T22:20:11.654Z,3.88
2023-06-29T22:22:59.324Z,3.78
2023-06-29T22:25:46.582Z,3.20
2023-06-29T22:28:34.098Z,3.42
2023-06-29T22:31:21.463Z,3.60
2023-06-29T22:34:08.789Z,3.70
2023-06-29T22:36:56.916Z,3.67
2023-06-29T22:39:44.477Z,3.70
2023-06-29T22:42:31.645Z,3.60
2023-06-29T22:45:19.241Z,3.20
2023-06-29T22:48:07.040Z,3.47
2023-06-29T22:50:56.839Z,3.47
2023-06-29T22:53:44.157Z,3.70
2023-06-29T22:56:32.311Z,3.33
2023-06-29T22:59:20.704Z,3.47
2023-06-29T23:02:08.017Z,3.63
2023-06-29T23:04:55.263Z,3.70
2023-06-29T23:07:45.295Z,3.70
2023-06-29T23:10:32.486Z,3.88
2023-06-29T23:13:19.793Z,3.50
2023-06-29T23:16:07.734Z,4.07
2023-06-29T23:18:55.173Z,4.05
2023-06-29T23:21:42.519Z,3.53
2023-06-29T23:24:30.411Z,4.07
2023-06-29T23:27:18.057Z,4.32
2023-06-29T23:30:11.226Z,4.18
2023-06-29T23:32:58.421Z,3.97
2023-06-29T23:35:46.173Z,4.28
2023-06-29T23:38:33.821Z,3.95
2023-06-29T23:41:29.333Z,3.63
2023-06-29T23:44:16.856Z,3.80
2023-06-29T23:47:04.315Z,3.97
2023-06-29T23:49:52.364Z,3.90
2023-06-29T23:52:41.049Z,4.00
2023-06-29T23:55:29.330Z,3.80
2023-06-29T23:58:16.898Z,3.92
